createdAt,value
2023-01-11T00:14:50.334Z,37.20
2023-01-11T00:17:26.104Z,40.50
2023-01-11T00:20:01.846Z,40.70
2023-01-11T00:22:56.922Z,38.80
2023-01-11T00:25:53.031Z,36.50
2023-01-11T00:28:42.890Z,32.80
2023-01-11T00:32:18.157Z,37.00
2023-01-11T00:36:11.837Z,41.20
2023-01-11T01:16:00.029Z,39.10
2023-01-11T01:19:27.891Z,36.60
2023-01-11T01:23:12.233Z,39.00
2023-01-11T01:27:00.259Z,37.90
2023-01-11T01:30:51.726Z,40.00
2023-01-11T01:34:42.357Z,36.10
2023-01-11T01:38:43.402Z,40.50
2023-01-11T02:07:38.905Z,46.80
2023-01-11T02:11:50.275Z,41.30
2023-01-11T02:54:21.491Z,36.40
2023-01-11T02:58:30.853Z,37.50
2023-01-11T03:37:10.215Z,35.20
2023-01-11T03:41:11.991Z,37.70
2023-01-11T03:45:12.684Z,42.80
2023-01-11T03:49:23.829Z,37.70
2023-01-11T04:13:36.443Z,40.00
2023-01-11T04:17:26.988Z,41.60
2023-01-11T04:21:37.829Z,34.40
2023-01-11T04:25:45.515Z,36.80
2023-01-11T04:50:56.728Z,34.80
2023-01-11T04:54:49.566Z,35.40
2023-01-11T05:11:34.568Z,40.70
2023-01-11T05:15:22.885Z,45.70
2023-01-11T05:52:45.444Z,56.40
2023-01-11T06:01:04.651Z,45.80
2023-01-11T06:04:24.663Z,43.40
2023-01-11T06:08:02.440Z,39.80
2023-01-11T06:12:14.322Z,48.70
2023-01-11T06:36:17.587Z,43.50
2023-01-11T06:39:07.062Z,44.30
2023-01-11T06:41:34.525Z,36.50
2023-01-11T06:44:04.950Z,44.40
2023-01-11T06:46:37.964Z,56.30
2023-01-11T06:49:07.332Z,46.90
2023-01-11T06:52:07.761Z,44.10
2023-01-11T06:54:57.035Z,47.10
2023-01-11T06:57:43.335Z,18.30
2023-01-11T07:01:00.689Z,52.60
2023-01-11T07:03:39.376Z,21.30
2023-01-11T07:06:18.507Z,23.10
2023-01-11T07:09:16.376Z,42.60
2023-01-11T07:11:48.542Z,24.90
2023-01-11T07:14:40.929Z,29.60
2023-01-11T07:18:11.581Z,24.80
2023-01-11T07:21:07.758Z,40.00
2023-01-11T07:25:16.048Z,35.70
2023-01-11T07:29:17.327Z,41.10
2023-01-11T07:33:25.650Z,38.80
2023-01-11T07:58:15.920Z,31.50
2023-01-11T08:02:24.116Z,41.30
2023-01-11T08:10:26.318Z,37.80
2023-01-11T08:13:54.994Z,32.80
2023-01-11T08:17:05.976Z,44.20
2023-01-11T08:20:42.773Z,50.80
2023-01-11T08:24:30.291Z,27.90
2023-01-11T08:27:59.596Z,33.00
2023-01-11T08:30:52.781Z,22.50
2023-01-11T09:25:35.614Z,28.60
2023-01-11T09:28:23.245Z,32.90
2023-01-11T09:30:55.733Z,44.60
2023-01-11T09:34:13.475Z,35.00
2023-01-11T10:18:33.760Z,33.60
2023-01-11T10:20:07.233Z,25.10
2023-01-11T10:23:32.177Z,16.40
2023-01-11T10:26:05.304Z,26.10
2023-01-11T10:29:30.306Z,27.10
2023-01-11T10:32:51.732Z,27.90
2023-01-11T10:37:02.713Z,27.90
2023-01-11T10:41:22.337Z,22.10
2023-01-11T10:45:33.443Z,28.50
2023-01-11T10:49:12.636Z,26.30
2023-01-11T10:53:12.153Z,26.10
2023-01-11T10:56:23.733Z,24.90
2023-01-11T10:59:04.300Z,26.40
2023-01-11T11:02:45.892Z,24.60
2023-01-11T11:06:23.592Z,24.70
2023-01-11T11:10:04.165Z,25.90
2023-01-11T11:13:44.221Z,19.30
2023-01-11T11:16:28.089Z,19.90
2023-01-11T11:19:21.733Z,24.30
2023-01-11T11:22:47.457Z,23.60
2023-01-11T11:25:43.386Z,28.10
2023-01-11T11:28:33.783Z,28.00
2023-01-11T11:31:16.620Z,28.90
2023-01-11T11:33:51.114Z,24.00
2023-01-11T11:36:32.188Z,27.40
2023-01-11T11:39:30.572Z,29.20
2023-01-11T11:42:22.314Z,24.70
2023-01-11T11:45:14.649Z,26.00
2023-01-11T11:48:29.712Z,22.00
2023-01-11T11:51:23.278Z,21.00
2023-01-11T11:54:43.405Z,20.30
2023-01-11T11:57:47.812Z,21.70
2023-01-11T12:00:59.279Z,19.90
2023-01-11T12:03:39.130Z,17.20
2023-01-11T12:07:40.487Z,19.10
2023-01-11T12:10:45.113Z,18.70
2023-01-11T12:14:42.886Z,19.50
2023-01-11T12:18:11.132Z,20.60
2023-01-11T12:21:34.129Z,14.80
2023-01-11T12:25:09.269Z,17.00
2023-01-11T12:28:18.505Z,16.90
2023-01-11T12:32:05.240Z,19.60
2023-01-11T12:35:20.811Z,20.40
2023-01-11T12:39:05.368Z,19.90
2023-01-11T12:42:36.519Z,21.30
2023-01-11T12:46:36.821Z,17.20
2023-01-11T12:50:09.644Z,19.30
2023-01-11T12:54:10.797Z,19.20
2023-01-11T12:57:17.574Z,22.30
2023-01-11T13:00:10.327Z,24.80
2023-01-11T13:03:43.317Z,22.10
2023-01-11T13:07:33.346Z,21.40
2023-01-11T13:10:38.861Z,19.80
2023-01-11T13:14:04.068Z,23.80
2023-01-11T13:18:02.064Z,22.40
2023-01-11T13:22:01.259Z,19.80
2023-01-11T13:25:43.875Z,13.40
2023-01-11T13:29:32.742Z,26.20
2023-01-11T13:32:37.217Z,25.40
2023-01-11T13:35:50.226Z,26.30
2023-01-11T13:39:42.942Z,25.10
2023-01-11T13:42:25.685Z,21.80
2023-01-11T13:46:25.246Z,23.50
2023-01-11T13:50:14.969Z,23.60
2023-01-11T13:54:36.660Z,24.40
2023-01-11T13:58:56.890Z,24.40
2023-01-11T14:02:47.304Z,23.80
2023-01-11T14:06:42.577Z,21.80
2023-01-11T14:10:23.699Z,21.10
2023-01-11T14:14:18.311Z,18.70
2023-01-11T14:18:33.898Z,23.60
2023-01-11T14:22:15.069Z,23.40
2023-01-11T14:26:01.682Z,29.90
2023-01-11T14:30:15.564Z,17.70
2023-01-11T14:34:22.531Z,30.30
2023-01-11T14:38:27.160Z,21.20
2023-01-11T14:42:57.908Z,22.40
2023-01-11T14:47:01.105Z,22.90
2023-01-11T14:51:45.589Z,25.60
2023-01-11T14:56:08.708Z,18.70
2023-01-11T14:59:44.811Z,27.90
2023-01-11T15:03:18.140Z,16.60
2023-01-11T15:07:27.760Z,18.60
2023-01-11T15:11:43.454Z,21.60
2023-01-11T15:15:51.960Z,24.10
2023-01-11T15:19:20.571Z,26.50
2023-01-11T15:37:49.091Z,26.10
2023-01-11T15:41:42.328Z,43.70
2023-01-11T15:45:31.088Z,30.80
2023-01-11T15:53:55.719Z,41.00
2023-01-11T15:57:53.007Z,41.00
2023-01-11T16:01:39.648Z,44.20
2023-01-11T16:05:57.220Z,45.10
2023-01-11T16:09:33.312Z,46.10
2023-01-11T16:13:49.100Z,42.50
2023-01-11T16:17:40.711Z,43.30
2023-01-11T16:22:01.143Z,42.80
2023-01-11T16:53:51.060Z,96.20
2023-01-11T16:57:43.774Z,114.00
2023-01-11T17:01:54.184Z,140.60
2023-01-11T17:05:42.497Z,148.20
2023-01-11T17:09:19.626Z,232.90
2023-01-11T17:12:44.916Z,133.70
2023-01-11T17:16:10.402Z,225.00
2023-01-11T17:18:56.211Z,311.90
2023-01-11T17:21:32.878Z,178.90
2023-01-11T17:24:05.287Z,100.50
2023-01-11T17:26:53.334Z,79.30
2023-01-11T17:29:58.845Z,77.70
2023-01-11T17:32:44.722Z,59.60
2023-01-11T17:35:47.657Z,69.80
2023-01-11T17:38:46.204Z,67.00
2023-01-11T17:42:16.119Z,79.20
2023-01-11T17:45:16.552Z,83.90
2023-01-11T17:48:28.347Z,141.90
2023-01-11T17:51:01.845Z,93.10
2023-01-11T17:54:03.609Z,76.60
2023-01-11T17:57:22.380Z,81.50
2023-01-11T18:00:30.233Z,69.80
2023-01-11T18:03:40.975Z,65.40
2023-01-11T18:06:48.762Z,74.20
2023-01-11T18:09:57.168Z,69.10
2023-01-11T18:13:26.373Z,57.70
2023-01-11T18:17:36.861Z,77.50
2023-01-11T18:21:48.853Z,43.30
2023-01-11T18:25:39.818Z,71.90
2023-01-11T18:57:32.814Z,52.40
2023-01-11T19:01:05.640Z,53.80
2023-01-11T19:04:18.320Z,49.10
2023-01-11T19:06:59.916Z,59.80
2023-01-11T19:10:28.293Z,52.30
2023-01-11T19:13:24.012Z,32.00
2023-01-11T19:17:20.986Z,61.70
2023-01-11T19:21:23.146Z,56.00
2023-01-11T19:25:04.139Z,67.60
2023-01-11T20:19:30.501Z,64.70
2023-01-11T20:22:16.078Z,59.60
2023-01-11T20:25:12.824Z,49.10
2023-01-11T20:28:24.625Z,48.60
2023-01-11T20:31:54.545Z,60.40
2023-01-11T20:35:38.282Z,64.50
2023-01-11T20:39:17.954Z,68.80
2023-01-11T20:42:20.101Z,58.70
2023-01-11T20:45:05.789Z,71.30
2023-01-11T20:47:35.599Z,71.30
2023-01-11T20:50:14.840Z,50.40
2023-01-11T20:52:42.701Z,61.00
2023-01-11T20:55:12.923Z,61.60
2023-01-11T20:57:48.268Z,61.60
2023-01-11T21:00:16.810Z,62.80
2023-01-11T21:02:44.669Z,63.40
2023-01-11T21:05:12.274Z,64.60
2023-01-11T21:07:42.190Z,64.00
2023-01-11T21:10:12.427Z,57.10
2023-01-11T21:12:39.970Z,68.30
2023-01-11T21:15:10.944Z,62.50
2023-01-11T21:17:41.646Z,59.20
2023-01-11T21:20:37.983Z,72.60
2023-01-11T21:24:40.046Z,82.70
2023-01-11T21:28:38.131Z,65.10
2023-01-11T22:27:29.727Z,19.80
2023-01-11T22:30:08.458Z,19.90
2023-01-11T22:32:56.795Z,18.80
2023-01-11T22:36:55.294Z,17.10
2023-01-11T22:40:06.366Z,17.90
2023-01-11T22:42:55.232Z,14.20
2023-01-11T22:45:34.890Z,12.10
2023-01-11T22:48:34.581Z,11.50
2023-01-11T22:52:09.726Z,11.40
2023-01-11T22:55:08.109Z,14.30
2023-01-11T22:58:02.806Z,10.70
2023-01-11T23:01:14.708Z,10.40
2023-01-11T23:04:22.619Z,12.10
2023-01-11T23:07:44.760Z,9.40
2023-01-11T23:10:35.119Z,10.00
2023-01-11T23:13:34.304Z,13.20
2023-01-11T23:16:23.938Z,9.90
2023-01-11T23:20:02.192Z,10.30
2023-01-11T23:24:06.215Z,8.20
2023-01-11T23:31:32.207Z,10.60
2023-01-11T23:34:57.184Z,10.50
2023-01-11T23:37:27.613Z,10.80
2023-01-11T23:40:20.868Z,8.10
2023-01-11T23:43:28.165Z,9.40
2023-01-11T23:47:14.475Z,11.50
2023-01-11T23:51:21.258Z,8.60
